createdAt,value
2022-08-31T00:00:14.684Z,3.35
2022-08-31T00:02:59.900Z,3.90
2022-08-31T00:05:26.829Z,3.50
2022-08-31T00:07:55.584Z,4.13
2022-08-31T00:10:32.966Z,3.42
2022-08-31T00:13:07.495Z,3.22
2022-08-31T00:15:35.900Z,3.40
2022-08-31T00:18:04.674Z,3.30
2022-08-31T00:20:33.280Z,3.95
2022-08-31T00:23:03.959Z,3.47
2022-08-31T00:25:31.510Z,3.70
2022-08-31T00:27:58.371Z,3.70
2022-08-31T00:30:25.489Z,3.58
2022-08-31T00:32:52.442Z,3.53
2022-08-31T00:35:19.433Z,3.70
2022-08-31T00:37:46.353Z,3.47
2022-08-31T00:40:14.205Z,3.67
2022-08-31T00:42:41.830Z,3.47
2022-08-31T00:45:10.841Z,3.25
2022-08-31T00:47:38.280Z,3.40
2022-08-31T00:50:10.656Z,3.58
2022-08-31T00:52:42.017Z,3.85
2022-08-31T00:55:14.643Z,3.78
2022-08-31T00:57:48.027Z,3.92
2022-08-31T01:00:21.074Z,3.50
2022-08-31T01:02:48.726Z,3.75
2022-08-31T01:05:17.091Z,3.63
2022-08-31T01:07:47.971Z,3.40
2022-08-31T01:10:21.387Z,3.70
2022-08-31T01:12:59.333Z,3.88
2022-08-31T01:15:28.664Z,3.20
2022-08-31T01:17:59.114Z,4.15
2022-08-31T01:20:49.150Z,3.55
2022-08-31T01:23:34.422Z,3.20
2022-08-31T01:26:04.483Z,4.13
2022-08-31T01:28:31.735Z,3.67
2022-08-31T01:31:06.907Z,3.60
2022-08-31T01:33:38.227Z,3.80
2022-08-31T01:36:11.107Z,3.67
2022-08-31T01:38:42.093Z,3.40
2022-08-31T01:41:09.833Z,3.88
2022-08-31T01:43:40.105Z,3.85
2022-08-31T01:46:10.555Z,3.63
2022-08-31T01:48:41.093Z,3.42
2022-08-31T01:51:10.707Z,3.78
2022-08-31T01:56:20.309Z,3.53
2022-08-31T01:58:47.342Z,3.75
2022-08-31T02:01:36.120Z,3.50
2022-08-31T02:04:06.267Z,3.45
2022-08-31T02:06:34.698Z,4.00
2022-08-31T02:09:05.072Z,3.65
2022-08-31T02:14:00.345Z,3.60
2022-08-31T02:16:27.762Z,3.80
2022-08-31T02:18:55.052Z,3.75
2022-08-31T02:21:22.458Z,3.40
2022-08-31T02:23:49.758Z,3.25
2022-08-31T02:26:17.416Z,3.63
2022-08-31T02:28:47.139Z,3.50
2022-08-31T02:31:14.321Z,4.10
2022-08-31T02:33:49.136Z,3.30
2022-08-31T02:36:16.401Z,3.75
2022-08-31T02:38:44.120Z,3.58
2022-08-31T02:41:11.335Z,3.58
2022-08-31T02:43:40.659Z,3.65
2022-08-31T02:46:09.110Z,3.80
2022-08-31T02:48:41.977Z,3.33
2022-08-31T02:51:13.585Z,3.88
2022-08-31T02:53:40.733Z,3.78
2022-08-31T02:56:08.393Z,4.25
2022-08-31T02:58:37.093Z,3.78
2022-08-31T03:01:04.769Z,3.42
2022-08-31T03:03:33.739Z,3.40
2022-08-31T03:06:01.622Z,3.92
2022-08-31T03:08:31.009Z,3.50
2022-08-31T03:10:59.436Z,3.53
2022-08-31T03:13:26.475Z,3.80
2022-08-31T03:15:53.535Z,3.90
2022-08-31T03:18:22.802Z,3.97
2022-08-31T03:20:50.889Z,3.65
2022-08-31T03:23:17.828Z,3.65
2022-08-31T03:25:46.946Z,3.78
2022-08-31T03:28:14.525Z,3.35
2022-08-31T03:30:46.043Z,3.58
2022-08-31T03:33:14.243Z,3.80
2022-08-31T03:35:46.266Z,3.50
2022-08-31T03:38:16.189Z,4.10
2022-08-31T03:40:44.924Z,4.00
2022-08-31T03:43:13.194Z,3.90
2022-08-31T03:45:42.822Z,4.00
2022-08-31T03:48:13.102Z,3.83
2022-08-31T03:50:43.730Z,3.90
2022-08-31T03:53:22.507Z,3.80
2022-08-31T03:55:51.855Z,3.50
2022-08-31T03:58:18.974Z,3.80
2022-08-31T04:00:46.289Z,4.22
2022-08-31T04:03:31.239Z,3.42
2022-08-31T04:06:16.555Z,3.90
2022-08-31T04:09:04.230Z,4.32
2022-08-31T04:12:00.575Z,3.67
2022-08-31T04:14:46.411Z,3.80
2022-08-31T04:17:31.661Z,3.90
2022-08-31T04:20:18.500Z,3.75
2022-08-31T04:22:51.245Z,4.30
2022-08-31T04:25:40.176Z,4.78
2022-08-31T04:30:39.760Z,4.40
2022-08-31T04:33:07.713Z,4.22
2022-08-31T04:35:35.406Z,5.25
2022-08-31T04:38:02.585Z,4.72
2022-08-31T04:40:29.752Z,4.10
2022-08-31T04:42:59.941Z,4.03
2022-08-31T04:45:27.231Z,3.88
2022-08-31T04:47:54.107Z,4.05
2022-08-31T04:50:21.483Z,4.30
2022-08-31T04:53:05.504Z,4.15
2022-08-31T04:55:33.052Z,4.57
2022-08-31T04:58:00.240Z,5.88
2022-08-31T05:00:27.882Z,5.68
2022-08-31T05:03:20.279Z,5.30
2022-08-31T05:05:52.516Z,4.47
2022-08-31T05:08:20.583Z,3.72
2022-08-31T05:10:48.697Z,4.07
2022-08-31T05:13:16.086Z,5.63
2022-08-31T05:15:44.158Z,4.97
2022-08-31T05:18:14.473Z,4.97
2022-08-31T05:20:48.491Z,4.32
2022-08-31T05:23:15.421Z,4.15
2022-08-31T05:25:43.820Z,4.10
2022-08-31T05:28:11.053Z,4.47
2022-08-31T05:30:38.371Z,3.92
2022-08-31T05:33:08.739Z,3.85
2022-08-31T05:35:36.361Z,4.65
2022-08-31T05:38:03.602Z,4.00
2022-08-31T05:40:30.984Z,3.72
2022-08-31T05:42:59.673Z,4.38
2022-08-31T05:45:26.990Z,4.18
2022-08-31T05:47:54.479Z,3.85
2022-08-31T05:50:21.440Z,4.00
2022-08-31T05:52:49.564Z,4.10
2022-08-31T05:55:16.564Z,4.00
2022-08-31T05:57:43.542Z,3.85
2022-08-31T06:00:11.238Z,4.10
2022-08-31T06:02:44.267Z,3.85
2022-08-31T06:05:13.680Z,4.85
2022-08-31T06:07:41.932Z,3.92
2022-08-31T06:10:11.962Z,4.10
2022-08-31T06:12:42.589Z,4.55
2022-08-31T06:15:11.481Z,4.70
2022-08-31T06:17:38.449Z,3.95
2022-08-31T06:20:07.310Z,4.57
2022-08-31T06:22:36.052Z,4.65
2022-08-31T06:25:07.230Z,4.18
2022-08-31T06:27:38.967Z,4.45
2022-08-31T06:30:08.109Z,4.68
2022-08-31T06:32:35.344Z,4.50
2022-08-31T06:35:05.023Z,4.30
2022-08-31T06:37:45.478Z,4.60
2022-08-31T06:40:41.869Z,4.45
2022-08-31T06:43:28.739Z,4.18
2022-08-31T06:46:02.439Z,3.97
2022-08-31T06:48:32.214Z,4.10
2022-08-31T06:51:00.224Z,4.82
2022-08-31T06:53:28.034Z,4.88
2022-08-31T06:56:19.710Z,4.78
2022-08-31T06:59:14.040Z,5.10
2022-08-31T07:01:58.838Z,4.60
2022-08-31T07:04:38.612Z,5.07
2022-08-31T07:07:09.133Z,6.20
2022-08-31T07:12:05.422Z,5.57
2022-08-31T07:14:32.774Z,5.00
2022-08-31T07:17:03.256Z,5.47
2022-08-31T07:19:32.195Z,5.25
2022-08-31T07:22:04.772Z,5.40
2022-08-31T07:24:35.341Z,4.80
2022-08-31T07:27:13.062Z,5.13
2022-08-31T07:29:46.628Z,5.07
2022-08-31T07:32:15.985Z,5.18
2022-08-31T07:34:44.451Z,4.70
2022-08-31T07:37:42.272Z,4.72
2022-08-31T07:40:29.041Z,5.13
2022-08-31T07:42:57.710Z,5.32
2022-08-31T07:45:29.129Z,4.68
2022-08-31T07:47:59.990Z,5.30
2022-08-31T07:50:38.346Z,5.00
2022-08-31T07:53:22.552Z,4.88
2022-08-31T07:56:12.576Z,4.53
2022-08-31T07:58:43.163Z,4.40
2022-08-31T08:01:11.885Z,4.55
2022-08-31T08:03:44.276Z,4.97
2022-08-31T08:06:32.470Z,4.90
2022-08-31T08:09:27.103Z,4.80
2022-08-31T08:12:07.565Z,4.65
2022-08-31T08:14:43.656Z,4.90
2022-08-31T08:17:33.000Z,5.80
2022-08-31T08:20:35.245Z,5.55
2022-08-31T08:23:13.818Z,5.60
2022-08-31T08:26:09.724Z,5.82
2022-08-31T08:29:21.192Z,5.90
2022-08-31T08:31:53.210Z,6.47
2022-08-31T08:34:27.086Z,6.88
2022-08-31T08:37:01.805Z,7.38
2022-08-31T08:39:29.323Z,6.88
2022-08-31T08:42:12.996Z,7.43
2022-08-31T08:44:41.392Z,7.30
2022-08-31T08:47:15.583Z,7.13
2022-08-31T08:49:54.802Z,8.10
2022-08-31T08:52:32.238Z,9.90
2022-08-31T08:55:05.475Z,7.38
2022-08-31T08:57:39.818Z,7.80
2022-08-31T09:00:11.476Z,6.57
2022-08-31T09:02:58.642Z,7.97
2022-08-31T09:05:55.393Z,7.57
2022-08-31T09:08:54.960Z,6.95
2022-08-31T09:11:42.288Z,7.32
2022-08-31T09:14:19.331Z,7.95
2022-08-31T09:17:00.442Z,7.30
2022-08-31T09:19:27.827Z,7.28
2022-08-31T09:21:58.634Z,7.25
2022-08-31T09:24:30.381Z,7.00
2022-08-31T09:27:22.535Z,7.40
2022-08-31T09:29:56.798Z,13.05
2022-08-31T09:32:31.838Z,7.15
2022-08-31T09:35:22.291Z,6.95
2022-08-31T09:38:02.299Z,7.10
2022-08-31T09:40:37.012Z,7.15
2022-08-31T09:51:24.709Z,7.18
